Latest Coastal Weather Observations for Cocos Island

IDW60701

Issued at 9:42 am WST Tuesday 25 June 2024 (issued every 10 minutes, with the page automatically refreshed every 10 minutes)

About coastal observations | Map of coastal stations | Coastal observations for WA | Marine services | Other Formats
Station Details ID: 200284 Name: COCOS ISLAND AIRPORT Lat: -12.19 Lon: 96.83 Height: 3.0 m
Data from the previous 72 hours. | See also: Recent months at Cocos Island
Date/Time
WST
Wind Sea
Height
m
Swell Vis
km
Cloud Weather Temp
°C
Press
MSL
hPa
Rain since
9am
mm
Dir  Spd
kts
Gust
kts
Height
m
Period
s
Dir
25/09:30am E 9 16 - - - - 46 Mostly clear - 27.4 1011.9 0.4
25/09:00am ESE 8 13 - - - - - - - 27.4 1011.7 0.4
25/08:30am ESE 9 13 - - - - 10 Partly cloudy - 27.1 1011.4 0.4
25/08:00am ESE 9 15 - - - - 10 Cloudy - 26.8 1011.0 0.4
25/07:30am SE 11 15 - - - - 10 Partly cloudy - 26.9 1010.6 0.4
25/07:00am SE 14 18 - - - - - - - 26.4 1010.4 0.4
25/06:30am SE 15 19 - - - - - - - 26.7 - 0.4
25/06:00am SE 14 18 - - - - - - - 26.9 1010.5 0.4
25/05:30am ESE 10 17 - - - - - - - 27.1 - 0.4
25/05:00am E 7 13 - - - - 10 - - 27.1 1010.6 0.4
25/04:30am ESE 8 12 - - - - 10 - - 27.2 1010.7 0.4
25/04:00am ESE 10 15 - - - - 10 - - 27.1 1010.9 0.4
25/03:30am ESE 10 14 - - - - 10 - - 27.0 1011.1 0.4
25/03:00am E 8 13 - - - - - - - 27.2 1011.4 0.4
25/02:30am E 8 13 - - - - - - - 27.3 - 0.4
25/02:00am E 11 15 - - - - - Cloudy - 27.4 1011.9 0.4
25/01:30am E 11 19 - - - - 10 Partly cloudy - 27.3 1012.0 0.4
25/01:00am E 9 12 - - - - 10 Partly cloudy - 27.6 1012.2 0.4
25/12:30am E 13 16 - - - - - - - 27.5 - 0.4
25/12:00am E 9 14 - - - - - - - 27.1 1012.5 0.4
 
Date/Time
WST
Wind Sea
Height
m
Swell Vis
km
Cloud Weather Temp
°C
Press
MSL
hPa
Rain since
9am
mm
Dir  Spd
kts
Gust
kts
Height
m
Period
s
Dir
24/11:30pm E 13 16 - - - - 10 Partly cloudy - 27.9 1012.5 0.4
24/11:00pm ENE 10 14 - - - - - Partly cloudy - 27.6 1012.6 0.4
24/10:30pm ENE 13 17 - - - - - - - 27.7 - 0.4
24/10:00pm ENE 9 14 - - - - - - - 27.6 1012.5 0.4
24/09:30pm ENE 13 18 - - - - 10 Partly cloudy - 27.6 1012.3 0.4
24/09:00pm E 9 18 - - - - 9 Partly cloudy - 27.3 1012.0 0.4
24/08:30pm E 9 14 - - - - 10 - - 28.1 1011.5 0.2
24/08:00pm E 10 15 - - - - 10 Mostly clear - 28.2 1011.0 0.2
24/07:30pm E 11 17 - - - - - - - 28.3 - 0.2
24/07:00pm E 13 19 - - - - 10 Cloudy - 28.5 1010.4 0.2
24/06:30pm E 14 19 - - - - 10 Partly cloudy - 28.8 1010.3 0.2
24/06:00pm E 14 19 - - - - 10 Partly cloudy - 29.0 1010.4 0.2
24/05:30pm E 14 21 - - - - 10 - - 29.1 1010.4 0.2
24/05:00pm E 13 20 - - - - 10 - - 29.3 1010.4 0.2
24/04:30pm E 14 20 - - - - 10 - - 29.5 1010.5 0.2
24/04:00pm E 13 19 - - - - 10 Partly cloudy - 29.7 1010.7 0.2
24/03:30pm E 13 19 - - - - 10 Partly cloudy - 29.5 1010.8 0.2
24/03:00pm E 12 20 - - - - - - - 29.7 1011.0 0.2
24/02:30pm E 12 20 - - - - - - - 29.7 - 0.2
24/02:00pm E 16 22 - - - - - Mostly clear - 29.4 1011.5 0.2
24/01:30pm E 17 22 - - - - - - - 29.5 - 0.2
24/01:00pm E 17 21 - - - - - - - 29.8 1012.1 0.2
24/12:30pm E 18 23 - - - - - - - 29.2 - 0.2
24/12:00pm E 18 22 - - - - - - - 29.1 1012.5 0.0
24/11:30am E 17 21 - - - - - - - 28.8 - 0.0
24/11:00am E 17 21 - - - - - Partly cloudy - 28.6 1013.0 11.2
24/10:30am E 17 21 - - - - - - - 28.3 - 11.2
24/10:00am ENE 13 18 - - - - - - - 27.6 1012.9 11.2
24/09:30am E 7 13 - - - - - - - 27.0 - 11.0
24/09:00am E 10 15 - - - - - - - 26.3 1012.8 11.0
24/08:30am E 16 19 - - - - 10 Partly cloudy - 27.5 1012.3 10.8
24/08:00am E 17 21 - - - - - Cloudy - 27.5 1012.1 10.8
24/07:30am E 16 20 - - - - 10 Partly cloudy - 27.3 1011.8 10.8
24/07:00am E 16 19 - - - - 10 Partly cloudy - 27.3 1011.6 10.8
24/06:42am E 15 19 - - - - 10 Partly cloudy - 27.0 1011.7 10.8
24/06:30am ESE 6 9 - - - - 10 Partly cloudy - 26.0 1011.7 10.8
24/06:02am ESE 7 12 - - - - - - - 25.6 - 10.8
24/06:00am ESE 6 12 - - - - - - - 25.6 1011.6 10.8
24/05:37am E 9 16 - - - - 6 Partly cloudy - 26.0 1011.6 9.2
24/05:30am SE 10 15 - - - - 10 Partly cloudy - 26.6 1011.4 8.6
24/05:00am SE 9 11 - - - - - Cloudy - 26.5 1011.4 8.6
24/04:30am SE 13 17 - - - - 10 Partly cloudy - 26.2 1011.6 8.6
24/04:00am SE 8 10 - - - - 10 Cloudy - 26.5 1011.8 8.6
24/03:30am SE 9 11 - - - - 10 Partly cloudy - 26.0 1012.1 8.6
24/03:00am SSE 11 15 - - - - - - - 25.9 1012.2 8.6
24/02:30am ESE 11 16 - - - - - - - 26.5 - 8.6
24/02:00am SE 7 11 - - - - 10 Mostly cloudy - 25.7 1012.8 8.4
24/01:30am SE 10 13 - - - - 10 Partly cloudy - 25.4 1013.0 8.4
24/01:09am SE 6 10 - - - - - - - 24.6 - 8.4
24/01:00am SE 10 16 - - - - - - - 23.9 1013.4 8.4
24/12:33am E 19 33 - - - - 1 Partly cloudy - 23.2 1014.0 7.6
24/12:30am E 18 33 - - - - 2 Partly cloudy - 23.7 1014.0 5.2
24/12:29am E 16 31 - - - - 2 Partly cloudy - 24.1 1013.9 4.2
24/12:27am E 13 28 - - - - 5 Partly cloudy - 24.6 1013.8 2.8
24/12:25am ESE 11 28 - - - - 10 Partly cloudy - 25.9 1013.7 1.6
24/12:00am ESE 7 11 - - - - - - - 27.0 1013.2 1.6
 
Date/Time
WST
Wind Sea
Height
m
Swell Vis
km
Cloud Weather Temp
°C
Press
MSL
hPa
Rain since
9am
mm
Dir  Spd
kts
Gust
kts
Height
m
Period
s
Dir
23/11:30pm SE 10 14 - - - - 10 Partly cloudy - 26.5 1013.4 1.6
23/11:00pm ESE 10 13 - - - - 10 Cloudy Rain 26.4 1013.3 1.6
23/10:30pm SE 11 24 - - - - - - - 26.4 - 1.6
23/10:00pm ESE 5 7 - - - - - - - 25.5 1013.3 1.4
23/09:30pm SE 16 22 - - - - - - - 24.8 - 1.4
23/09:00pm ESE 12 17 - - - - 10 Cloudy - 26.5 1012.3 1.4
23/08:30pm ESE 13 20 - - - - - - - 26.0 - 1.4
23/08:21pm SE 15 20 - - - - 10 Partly cloudy - 25.7 1012.0 1.4
23/08:03pm SE 18 25 - - - - 6 Partly cloudy - 25.8 1011.8 1.4
23/08:00pm SE 17 23 - - - - 10 Cloudy Rain 26.0 1011.7 1.0
23/07:30pm ESE 10 14 - - - - 10 Cloudy - 27.8 1011.1 0.8
23/07:00pm ESE 11 14 - - - - 10 Partly cloudy - 27.6 1010.9 0.8
23/06:30pm ESE 12 18 - - - - 10 Cloudy - 27.8 1010.7 0.8
23/06:00pm ESE 10 17 - - - - - - - 28.5 1010.5 0.8
23/05:30pm ESE 12 19 - - - - 10 Partly cloudy - 29.0 1010.4 0.8
23/05:00pm ESE 12 19 - - - - - Mostly clear - 28.9 1010.4 0.8
23/04:30pm ESE 12 20 - - - - 10 Partly cloudy - 28.8 1010.4 0.8
23/04:00pm ESE 13 20 - - - - - - - 28.8 1010.6 0.8
23/03:30pm E 10 16 - - - - - - - 28.8 - 0.8
23/03:12pm E 13 18 - - - - 10 Partly cloudy - 27.8 1011.1 0.8
23/03:00pm E 15 24 - - - - 5 Partly cloudy - 26.9 1011.3 0.8
23/02:54pm E 15 24 - - - - 5 Partly cloudy - 26.8 1011.5 0.8
23/02:30pm ESE 10 16 - - - - - - - 29.5 - 0.2
23/02:00pm ESE 12 18 - - - - 10 Cloudy - 29.5 1011.9 0.2
23/01:30pm ESE 12 17 - - - - - - - 29.6 - 0.2
23/01:00pm ESE 12 18 - - - - - - - 29.6 1012.7 0.2
23/12:30pm ESE 13 21 - - - - - - - 29.1 - 0.2
23/12:00pm ESE 10 15 - - - - - - - 29.2 1013.3 0.0
23/11:30am ESE 13 19 - - - - - - - 28.6 - 0.0
23/11:00am ESE 13 19 - - - - - Mostly clear - 28.9 1013.4 13.6
23/10:30am E 13 21 - - - - - - - 28.7 - 13.6
23/10:00am E 13 21 - - - - - - - 27.9 1013.3 13.6
23/09:30am ESE 15 22 - - - - 10 Partly cloudy - 27.9 1013.1 13.6
23/09:00am ESE 13 19 - - - - 10 Partly cloudy - 27.9 1012.9 13.6
23/08:30am ESE 12 18 - - - - 10 Partly cloudy - 27.4 1012.6 13.6
23/08:00am ESE 12 19 - - - - - Mostly clear - 27.3 1012.2 13.6
23/07:30am ESE 13 19 - - - - 10 Partly cloudy - 27.4 1012.0 13.6
23/07:00am ESE 12 17 - - - - - - - 27.2 1011.9 13.6
23/06:30am ESE 13 21 - - - - - - - 27.2 - 13.6
23/06:00am E 11 19 - - - - 10 Partly cloudy - 26.8 1011.9 13.6
23/05:58am E 11 19 - - - - 10 Partly cloudy - 26.7 1011.9 13.6
23/05:37am E 12 20 - - - - - - - 25.5 - 13.2
23/05:30am E 12 15 - - - - - - - 26.2 - 11.8
23/05:15am ENE 15 20 - - - - - - - 24.9 - 11.8
23/05:00am E 15 24 - - - - 1 Cloudy Showers 24.8 1012.1 11.8
23/04:54am E 17 31 - - - - 1 Partly cloudy - 24.4 1012.2 11.4
23/04:50am E 15 31 - - - - - - - 25.0 - 8.2
23/04:49am E 14 31 - - - - 10 Partly cloudy - 25.3 1012.2 7.4
23/04:30am E 11 13 - - - - - - - 25.6 - 6.8
23/04:13am ESE 8 12 - - - - - - - 24.6 - 6.8
23/04:00am E 12 23 - - - - - - - 23.9 1012.3 6.8
23/03:37am ESE 15 28 - - - - 2 Partly cloudy - 25.1 1012.8 3.4
23/03:35am ESE 13 28 - - - - 5 Partly cloudy - 25.4 1012.7 2.0
23/03:30am ESE 11 17 - - - - - - - 26.8 - 1.0
23/03:00am ENE 17 21 - - - - - - - 27.4 1012.6 1.0
23/02:30am E 17 21 - - - - - - - 27.4 - 1.0
23/02:00am ENE 16 20 - - - - 10 Partly cloudy - 27.2 1013.1 1.0
23/01:30am ENE 15 19 - - - - 10 Partly cloudy - 27.1 1013.2 1.0
23/01:00am E 7 14 - - - - 10 Partly cloudy - 26.5 1013.5 1.0
23/12:38am E 9 14 - - - - 10 Partly cloudy - 26.2 1013.4 0.8
23/12:30am E 12 24 - - - - 9 Partly cloudy - 25.9 1013.5 0.8
23/12:26am E 17 27 - - - - 5 Partly cloudy - 26.0 1013.6 0.8
23/12:21am E 18 27 - - - - 6 Partly cloudy - 26.5 1013.6 0.8
23/12:17am E 15 27 - - - - 10 Partly cloudy - 27.3 1013.6 0.4
23/12:00am E 13 19 - - - - 10 Partly cloudy - 27.9 1013.4 0.0
 
Date/Time
WST
Wind Sea
Height
m
Swell Vis
km
Cloud Weather Temp
°C
Press
MSL
hPa
Rain since
9am
mm
Dir  Spd
kts
Gust
kts
Height
m
Period
s
Dir
22/11:30pm E 13 17 - - - - - - - 27.9 - 0.0
22/11:00pm E 15 21 - - - - - Mostly clear - 28.1 1013.3 0.0
22/10:30pm E 13 18 - - - - - - - 28.2 - 0.0
22/10:00pm E 11 17 - - - - 10 - - 28.2 1012.7 0.0
22/09:30pm E 10 17 - - - - 10 - - 28.2 1012.4 0.0
22/09:00pm E 12 19 - - - - 10 - - 28.2 1011.9 0.0
22/08:30pm E 12 21 - - - - - - - 28.4 - 0.0
22/08:00pm E 18 23 - - - - 10 - - 28.4 1011.3 0.0
22/07:30pm E 17 22 - - - - - - - 28.6 - 0.0
22/07:00pm E 19 26 - - - - - - - 28.7 1010.8 0.0
22/06:30pm E 20 24 - - - - - - - 28.9 - 0.0
22/06:00pm E 19 24 - - - - - - - 29.1 1010.4 0.0
22/05:30pm E 20 24 - - - - 10 - - 29.3 1010.4 0.0
22/05:00pm E 19 24 - - - - 10 - - 29.6 1010.5 0.0
22/04:30pm E 21 25 - - - - 10 - - 29.6 1010.5 0.0
22/04:00pm ENE 19 24 - - - - - - - 30.1 1010.4 0.0
22/03:30pm E 22 25 - - - - 10 - - 29.8 1010.5 0.0
22/03:00pm E 23 28 - - - - - - - 30.0 1010.8 0.0
22/02:30pm E 21 26 - - - - 10 Partly cloudy - 29.7 1011.2 0.0
22/02:00pm E 20 26 - - - - - Partly cloudy - 29.8 1011.3 0.0
22/01:30pm E 18 25 - - - - 10 Partly cloudy - 29.6 1011.6 0.0
22/01:00pm E 21 26 - - - - - - - 29.4 1012.0 0.0
22/12:30pm E 19 24 - - - - 10 - - 29.2 1012.1 0.0
22/12:00pm E 18 25 - - - - 10 - - 29.3 1012.3 0.0
22/11:30am E 17 24 - - - - - - - 28.9 - 0.0
22/11:00am E 17 24 - - - - 10 Mostly clear - 28.8 1012.6 0.2
22/10:30am E 15 22 - - - - 10 Partly cloudy - 28.7 1012.7 0.2
22/10:00am E 12 20 - - - - - - - 28.4 1012.5 0.2

Other formats

Comma delimited format used in spreadsheet applications
http://www.bom.gov.au/fwo/IDW60701/IDW60701.96996.axf

JavaScript Object Notation format (JSON) in row-major order
http://www.bom.gov.au/fwo/IDW60701/IDW60701.96996.json

Data quality

Most of these data are generated automatically and are frequently updated. Quality checks on data are not normally performed. It is possible for incorrect values to appear. Refer to information at About Latest Weather Observations and please check the disclaimer before using these data.